Time;durP1;ratioP1;P1;durP2;ratioP2;P2;SDS_P1;SDS_P2;PMS_P1;PMS_P2;Temp;Humidity;BMP_temperature;BMP_pressure;BME280_temperature;BME280_humidity;BME280_pressure;Samples;Min_cycle;Max_cycle;Signal;HPM_P1;HPM_P2
2022/08/18 00:01:10;;;;;;;2.47;2.47;;;25.50;66.50;;;;;;5067738;28;44067;-73
2022/08/18 00:03:41;;;;;;;2.60;2.50;;;25.60;66.50;;;;;;5066317;28;44000;-73
2022/08/18 00:06:29;;;;;;;2.15;2.15;;;25.70;66.30;;;;;;5065713;28;46035;-74
2022/08/18 00:08:59;;;;;;;2.50;2.50;;;25.80;65.80;;;;;;5067342;28;43868;-73
2022/08/18 00:11:28;;;;;;;2.10;2.10;;;25.90;66.20;;;;;;5067146;28;43945;-73
2022/08/18 00:14:10;;;;;;;2.20;2.20;;;25.90;65.30;;;;;;5067945;28;43884;-73
2022/08/18 00:16:41;;;;;;;2.60;2.50;;;25.90;65.20;;;;;;5067027;28;44094;-73
2022/08/18 00:19:09;;;;;;;2.07;2.07;;;25.80;65.60;;;;;;5065774;28;44960;-72
2022/08/18 00:21:37;;;;;;;2.10;2.10;;;25.80;65.60;;;;;;5067764;28;43420;-73
2022/08/18 00:24:06;;;;;;;2.25;2.25;;;25.80;65.50;;;;;;5067693;28;44090;-73
2022/08/18 00:26:34;;;;;;;2.30;2.30;;;25.70;65.30;;;;;;5066439;28;43982;-73
2022/08/18 00:29:04;;;;;;;2.20;2.20;;;25.70;66.00;;;;;;5066988;28;43629;-72
2022/08/18 00:31:32;;;;;;;2.27;2.27;;;25.60;66.20;;;;;;5066585;28;44010;-73
2022/08/18 00:34:00;;;;;;;2.03;2.03;;;25.70;66.20;;;;;;5065907;28;44091;-73
2022/08/18 00:36:30;;;;;;;2.33;2.33;;;25.60;65.70;;;;;;5066556;28;43966;-73
2022/08/18 00:38:58;;;;;;;2.20;2.20;;;25.60;66.30;;;;;;5066905;28;43848;-73
2022/08/18 00:41:28;;;;;;;2.35;2.30;;;25.60;66.60;;;;;;5066582;28;43931;-73
2022/08/18 00:43:57;;;;;;;2.40;2.38;;;25.60;66.30;;;;;;5066111;28;44082;-73
2022/08/18 00:46:27;;;;;;;2.53;2.42;;;25.70;66.10;;;;;;5066678;28;43921;-74
2022/08/18 00:48:57;;;;;;;2.40;2.40;;;25.80;65.70;;;;;;5067010;28;43982;-72
2022/08/18 00:51:27;;;;;;;2.20;2.20;;;25.90;65.40;;;;;;5065312;28;43860;-73
2022/08/18 00:53:59;;;;;;;2.17;2.17;;;25.90;65.30;;;;;;5067573;28;44006;-74
2022/08/18 00:56:32;;;;;;;2.25;2.25;;;25.80;65.50;;;;;;5065313;28;45838;-73
2022/08/18 00:59:04;;;;;;;2.53;2.53;;;25.80;65.80;;;;;;5065535;28;43359;-73
2022/08/18 01:01:32;;;;;;;2.28;2.28;;;25.70;65.70;;;;;;5060203;28;43976;-73
2022/08/18 01:04:02;;;;;;;2.30;2.30;;;25.70;65.40;;;;;;5059109;28;43944;-74
2022/08/18 01:06:33;;;;;;;2.40;2.30;;;25.70;65.90;;;;;;5060352;28;43992;-73
2022/08/18 01:09:01;;;;;;;2.30;2.30;;;25.60;66.20;;;;;;5064994;28;44801;-73
2022/08/18 01:11:31;;;;;;;2.08;2.08;;;25.60;66.20;;;;;;5066260;28;43916;-74
2022/08/18 01:13:59;;;;;;;2.20;2.20;;;25.60;65.90;;;;;;5065328;28;43550;-74
2022/08/18 01:22:13;;;;;;;2.07;2.07;;;25.60;66.50;;;;;;5067143;28;44078;-73
2022/08/18 01:27:30;;;;;;;1.92;1.92;;;25.90;65.80;;;;;;5064345;28;45562;-73
2022/08/18 01:30:03;;;;;;;2.20;2.20;;;25.90;65.60;;;;;;5066189;28;43906;-73
2022/08/18 01:32:31;;;;;;;2.28;2.28;;;25.90;65.30;;;;;;5065798;28;43409;-73
2022/08/18 01:34:59;;;;;;;1.90;1.90;;;25.80;65.70;;;;;;5066828;28;44056;-73
2022/08/18 01:37:27;;;;;;;2.10;2.10;;;25.80;65.90;;;;;;5063570;28;45574;-74
2022/08/18 01:39:57;;;;;;;2.17;2.17;;;25.80;65.80;;;;;;5066203;28;44043;-73
2022/08/18 01:42:45;;;;;;;2.10;2.10;;;25.70;65.60;;;;;;5065374;28;43896;-72
2022/08/18 01:45:13;;;;;;;2.10;2.10;;;25.60;66.10;;;;;;5065122;28;43416;-72
2022/08/18 01:47:41;;;;;;;2.38;2.38;;;25.60;66.40;;;;;;5064876;28;45778;-73
2022/08/18 01:50:15;;;;;;;2.20;2.20;;;25.60;66.20;;;;;;5064467;28;44601;-73
2022/08/18 01:52:43;;;;;;;2.43;2.43;;;25.60;65.90;;;;;;5064056;28;44024;-73
2022/08/18 01:55:12;;;;;;;2.60;2.40;;;25.60;66.40;;;;;;5066748;28;44029;-73
2022/08/18 01:57:43;;;;;;;2.28;2.28;;;25.60;66.70;;;;;;5065584;28;43832;-73
2022/08/18 02:00:13;;;;;;;2.20;2.20;;;25.60;66.50;;;;;;5066006;28;43889;-74
2022/08/18 02:02:41;;;;;;;2.30;2.30;;;25.70;66.20;;;;;;5064138;28;44067;-74
2022/08/18 02:05:12;;;;;;;2.35;2.35;;;25.80;65.80;;;;;;5065338;28;44020;-73
2022/08/18 02:07:40;;;;;;;2.22;2.22;;;25.90;65.60;;;;;;5065184;28;45153;-73
2022/08/18 02:10:09;;;;;;;2.13;2.13;;;25.90;65.40;;;;;;5064206;28;44900;-72
2022/08/18 02:12:40;;;;;;;2.30;2.30;;;25.80;65.60;;;;;;5065718;28;43922;-73
2022/08/18 02:15:09;;;;;;;2.35;2.35;;;25.80;66.10;;;;;;5066125;28;44023;-73
2022/08/18 02:17:38;;;;;;;2.00;2.00;;;25.70;65.90;;;;;;5065021;28;43908;-74
2022/08/18 02:20:07;;;;;;;2.10;2.10;;;25.70;65.80;;;;;;5065478;28;43968;-73
2022/08/18 02:22:35;;;;;;;2.42;2.42;;;25.70;65.90;;;;;;5063831;28;43963;-74
2022/08/18 02:25:04;;;;;;;2.55;2.50;;;25.60;66.40;;;;;;5065708;28;44278;-74
2022/08/18 02:27:34;;;;;;;2.03;2.03;;;25.60;66.30;;;;;;5064668;28;43640;-73
2022/08/18 02:30:06;;;;;;;1.90;1.90;;;25.60;66.20;;;;;;5066055;28;43373;-73
2022/08/18 02:32:34;;;;;;;2.15;2.15;;;25.60;66.20;;;;;;5065244;28;44015;-73
2022/08/18 02:35:04;;;;;;;2.00;2.00;;;25.60;66.80;;;;;;5065865;28;44075;-73
2022/08/18 02:37:36;;;;;;;2.07;2.07;;;25.60;66.70;;;;;;5063057;28;46035;-74
2022/08/18 02:40:07;;;;;;;2.33;2.22;;;25.70;66.40;;;;;;5065457;28;44148;-73
2022/08/18 02:42:37;;;;;;;2.43;2.43;;;25.80;66.70;;;;;;5064638;28;44034;-73
2022/08/18 02:45:07;;;;;;;2.22;2.22;;;25.90;65.70;;;;;;5059366;28;43888;-73
2022/08/18 02:47:36;;;;;;;2.20;2.20;;;25.90;66.20;;;;;;5060357;28;43925;-73
2022/08/18 02:50:05;;;;;;;2.20;2.20;;;25.80;65.40;;;;;;5068906;28;43864;-73
2022/08/18 02:52:34;;;;;;;2.55;2.55;;;25.70;65.90;;;;;;5068035;28;43947;-74
2022/08/18 02:55:02;;;;;;;2.13;2.13;;;25.70;66.20;;;;;;5067468;28;43920;-73
2022/08/18 02:57:31;;;;;;;2.00;2.00;;;25.70;65.90;;;;;;5067886;28;43972;-73
2022/08/18 03:00:00;;;;;;;2.17;2.15;;;25.70;65.90;;;;;;5068485;28;43986;-74
2022/08/18 03:02:30;;;;;;;2.00;2.00;;;25.60;66.40;;;;;;5068328;28;43980;-73
2022/08/18 03:04:58;;;;;;;2.03;2.03;;;25.60;66.60;;;;;;5068825;28;43594;-73
2022/08/18 03:07:26;;;;;;;2.30;2.30;;;25.60;67.30;;;;;;5066648;28;45732;-74
2022/08/18 03:09:54;;;;;;;2.08;2.08;;;25.60;66.20;;;;;;5068305;28;43925;-74
2022/08/18 03:12:23;;;;;;;2.22;2.22;;;25.60;66.70;;;;;;5067198;28;43868;-73
2022/08/18 03:14:51;;;;;;;2.03;2.03;;;25.50;66.80;;;;;;5068442;28;44057;-74
2022/08/18 03:17:20;;;;;;;2.17;2.17;;;25.60;66.70;;;;;;5068170;28;44757;-73
2022/08/18 03:19:50;;;;;;;2.15;2.05;;;25.70;66.30;;;;;;5067789;28;43489;-73
2022/08/18 03:22:19;;;;;;;2.38;2.15;;;25.80;66.00;;;;;;5068941;28;43887;-74
2022/08/18 03:24:56;;;;;;;2.40;2.40;;;25.90;65.70;;;;;;5068576;28;44061;-73
2022/08/18 03:27:24;;;;;;;2.15;2.10;;;25.90;65.70;;;;;;5066497;28;46136;-74
2022/08/18 03:29:52;;;;;;;3.25;3.00;;;25.80;65.70;;;;;;5068190;28;44090;-72
2022/08/18 03:32:20;;;;;;;3.23;2.93;;;25.80;66.10;;;;;;5066606;28;43350;-73
2022/08/18 03:34:49;;;;;;;2.78;2.67;;;25.70;66.00;;;;;;5068418;28;44035;-74
2022/08/18 03:37:17;;;;;;;3.30;3.10;;;25.70;65.90;;;;;;5067792;28;43987;-73
2022/08/18 03:39:45;;;;;;;3.92;3.60;;;25.70;66.20;;;;;;5067283;28;44042;-73
2022/08/18 03:42:13;;;;;;;6.13;3.65;;;25.60;66.60;;;;;;5067534;28;44018;-74
2022/08/18 03:44:41;;;;;;;3.50;3.20;;;25.60;66.60;;;;;;5068152;28;44063;-72
2022/08/18 03:47:09;;;;;;;4.00;3.63;;;25.60;66.40;;;;;;5067856;28;43982;-74
2022/08/18 03:49:37;;;;;;;4.70;4.30;;;25.60;66.30;;;;;;5067119;28;43431;-74
2022/08/18 03:52:09;;;;;;;9.30;4.10;;;25.60;66.90;;;;;;5067504;28;44061;-73
2022/08/18 03:54:37;;;;;;;11.93;4.35;;;25.60;66.80;;;;;;5067749;28;43917;-72
2022/08/18 03:57:07;;;;;;;9.30;5.20;;;25.70;66.60;;;;;;5067983;28;43686;-74
2022/08/18 03:59:35;;;;;;;7.13;4.53;;;25.80;66.20;;;;;;5066485;28;43981;-73
2022/08/18 04:02:04;;;;;;;6.65;4.47;;;25.90;65.90;;;;;;5066284;28;44217;-73
2022/08/18 04:04:32;;;;;;;6.55;4.43;;;25.90;65.70;;;;;;5067805;28;43897;-75
2022/08/18 04:07:03;;;;;;;7.35;4.82;;;25.90;65.70;;;;;;5067443;28;43941;-73
2022/08/18 04:09:33;;;;;;;7.53;4.75;;;25.80;66.00;;;;;;5067033;28;44034;-73
2022/08/18 04:12:04;;;;;;;10.98;5.22;;;25.80;66.20;;;;;;5068243;28;43953;-73
2022/08/18 04:14:33;;;;;;;5.88;4.38;;;25.80;66.10;;;;;;5065606;28;43943;-73
2022/08/18 04:17:01;;;;;;;7.73;5.37;;;25.70;65.90;;;;;;5067287;28;43908;-73
2022/08/18 04:19:29;;;;;;;8.95;4.90;;;25.70;66.50;;;;;;5066571;28;43546;-73
2022/08/18 04:21:57;;;;;;;7.37;4.63;;;25.60;66.60;;;;;;5067230;28;43971;-72
2022/08/18 04:24:26;;;;;;;9.45;5.32;;;25.60;66.40;;;;;;5066206;28;43928;-72
2022/08/18 04:26:57;;;;;;;7.33;5.00;;;25.60;66.20;;;;;;5067060;28;44388;-74
2022/08/18 04:29:26;;;;;;;7.78;5.38;;;25.60;66.90;;;;;;5067263;28;43861;-74
2022/08/18 04:31:54;;;;;;;6.95;4.95;;;25.60;66.90;;;;;;5067096;28;43979;-73
2022/08/18 04:34:22;;;;;;;8.13;5.57;;;25.70;66.60;;;;;;5067243;28;43954;-74
2022/08/18 04:36:52;;;;;;;8.10;5.25;;;25.80;67.10;;;;;;5064931;28;47328;-72
2022/08/18 04:39:20;;;;;;;8.63;5.47;;;25.90;66.00;;;;;;5060279;28;44034;-73
2022/08/18 04:41:50;;;;;;;8.32;5.05;;;25.90;65.80;;;;;;5059994;28;43920;-73
2022/08/18 04:44:20;;;;;;;8.77;5.47;;;25.90;65.70;;;;;;5061095;28;43972;-74
2022/08/18 04:46:49;;;;;;;8.65;5.20;;;25.80;65.90;;;;;;5059482;28;43921;-73
2022/08/18 04:49:18;;;;;;;8.07;5.53;;;25.80;66.10;;;;;;5052238;28;45633;-73
2022/08/18 04:53:43;;;;;;;7.25;5.20;;;25.80;66.30;;;;;;5067366;28;43940;-73
2022/08/18 04:54:54;;;;;;;7.47;5.35;;;25.70;65.90;;;;;;5067898;28;43484;-73
2022/08/18 04:57:22;;;;;;;6.30;4.93;;;25.70;66.60;;;;;;5067298;28;44741;-74
2022/08/18 04:59:52;;;;;;;6.95;5.40;;;25.70;66.70;;;;;;5067165;28;44050;-73
2022/08/18 05:02:20;;;;;;;7.20;4.97;;;25.60;66.40;;;;;;5065633;28;43896;-72
2022/08/18 05:04:48;;;;;;;7.63;5.05;;;25.60;66.20;;;;;;5067716;28;43920;-74
2022/08/18 05:07:17;;;;;;;6.95;5.30;;;25.60;66.90;;;;;;5067045;28;43927;-73
2022/08/18 05:09:45;;;;;;;6.72;4.70;;;25.60;67.00;;;;;;5066477;28;43917;-74
2022/08/18 05:12:14;;;;;;;6.63;5.20;;;25.60;66.90;;;;;;5060139;28;44002;-74
2022/08/18 05:14:43;;;;;;;5.97;4.70;;;25.60;67.30;;;;;;5060706;28;43967;-73
2022/08/18 05:17:13;;;;;;;5.43;4.90;;;25.60;66.80;;;;;;5045936;28;46174;-73
2022/08/18 05:19:41;;;;;;;4.95;4.45;;;25.50;67.20;;;;;;5060384;28;44204;-73
2022/08/18 05:22:12;;;;;;;5.38;4.45;;;25.60;67.50;;;;;;5067146;28;43980;-73
2022/08/18 05:24:41;;;;;;;5.13;4.65;;;25.70;66.80;;;;;;5067047;28;44066;-73
2022/08/18 05:27:09;;;;;;;6.63;4.72;;;25.80;66.40;;;;;;5066907;28;44050;-73
2022/08/18 05:29:37;;;;;;;5.07;4.28;;;25.90;65.90;;;;;;5066439;28;43941;-72
2022/08/18 05:32:14;;;;;;;6.40;5.18;;;25.90;65.80;;;;;;5067029;28;43962;-74
2022/08/18 05:35:04;;;;;;;5.32;4.85;;;25.90;65.70;;;;;;5065426;28;44044;-73
2022/08/18 05:37:35;;;;;;;5.38;4.90;;;25.90;66.70;;;;;;5064590;28;44117;-73
2022/08/18 05:40:05;;;;;;;4.95;4.55;;;25.80;66.10;;;;;;5066364;28;44062;-73
2022/08/18 05:42:39;;;;;;;4.88;4.55;;;25.80;66.10;;;;;;5064231;28;44015;-73
2022/08/18 05:45:09;;;;;;;4.97;4.47;;;25.80;66.00;;;;;;5060214;28;43451;-74
2022/08/18 05:47:39;;;;;;;4.70;4.30;;;25.70;66.40;;;;;;5060056;28;44985;-73
2022/08/18 05:50:09;;;;;;;4.55;4.20;;;25.60;66.70;;;;;;5065144;28;44703;-73
2022/08/18 05:52:39;;;;;;;5.10;4.20;;;25.60;66.60;;;;;;5066149;28;43936;-73
2022/08/18 05:57:58;;;;;;;4.57;4.28;;;25.60;66.60;;;;;;5066288;28;43732;-73
2022/08/18 06:00:26;;;;;;;4.50;4.20;;;25.60;67.10;;;;;;5064611;28;44598;-72
2022/08/18 06:02:57;;;;;;;4.07;3.88;;;25.60;67.10;;;;;;5066366;28;43959;-73
2022/08/18 06:05:27;;;;;;;4.50;4.20;;;25.60;66.70;;;;;;5065164;28;43984;-73
2022/08/18 06:07:58;;;;;;;4.97;4.57;;;25.50;66.60;;;;;;5066174;28;44157;-73
2022/08/18 06:10:26;;;;;;;4.60;4.23;;;25.50;67.30;;;;;;5064721;28;44844;-74
2022/08/18 06:12:55;;;;;;;4.40;4.10;;;25.60;67.20;;;;;;5064940;28;44067;-74
2022/08/18 06:15:25;;;;;;;4.80;4.40;;;25.60;66.90;;;;;;5066625;28;43963;-73
2022/08/18 06:18:28;;;;;;;4.30;4.00;;;25.80;66.60;;;;;;5066126;28;43706;-73
2022/08/18 06:21:06;;;;;;;4.30;3.95;;;25.90;66.10;;;;;;5065909;28;43878;-73
2022/08/18 06:23:39;;;;;;;4.30;4.03;;;25.90;66.00;;;;;;5067594;28;44011;-74
2022/08/18 06:26:12;;;;;;;4.63;4.33;;;25.90;65.90;;;;;;5068759;28;43917;-73
2022/08/18 06:28:50;;;;;;;4.40;4.20;;;25.90;66.40;;;;;;5063110;28;44009;-72
2022/08/18 06:31:21;;;;;;;4.10;3.80;;;25.80;66.50;;;;;;5069695;28;44229;-73
2022/08/18 06:34:08;;;;;;;3.97;3.63;;;25.80;66.40;;;;;;5069705;28;44025;-73
2022/08/18 06:36:39;;;;;;;3.90;3.70;;;25.70;66.30;;;;;;5069601;28;43908;-73
2022/08/18 06:39:11;;;;;;;4.13;3.83;;;25.60;66.80;;;;;;5069502;28;43898;-73
2022/08/18 06:41:42;;;;;;;4.05;3.78;;;25.60;66.80;;;;;;5068428;28;43947;-73
2022/08/18 06:44:13;;;;;;;4.00;3.80;;;25.60;66.70;;;;;;5067976;28;43980;-73
2022/08/18 06:46:44;;;;;;;4.05;3.85;;;25.60;66.50;;;;;;5069695;28;43877;-73
2022/08/18 06:49:23;;;;;;;4.10;3.83;;;25.60;67.20;;;;;;5067711;28;47010;-74
2022/08/18 06:51:51;;;;;;;4.10;3.90;;;25.60;67.30;;;;;;5063596;28;43406;-74
2022/08/18 06:54:26;;;;;;;4.43;4.13;;;25.60;67.00;;;;;;5067398;28;43916;-73
2022/08/18 06:56:55;;;;;;;3.97;3.78;;;25.80;66.70;;;;;;5069627;28;43365;-73
2022/08/18 06:59:25;;;;;;;4.05;3.83;;;25.90;66.40;;;;;;5069150;28;44313;-73
2022/08/18 07:01:54;;;;;;;4.28;4.07;;;25.90;66.20;;;;;;5069115;28;44391;-74
2022/08/18 07:05:00;;;;;;;3.72;3.53;;;25.90;66.20;;;;;;5069316;28;43979;-73
2022/08/18 07:07:33;;;;;;;3.88;3.67;;;25.80;66.40;;;;;;5059779;28;44253;-72
2022/08/18 07:10:28;;;;;;;4.03;3.83;;;25.70;66.60;;;;;;5068933;28;43876;-73
2022/08/18 07:13:06;;;;;;;4.03;3.85;;;25.70;66.50;;;;;;5068928;28;43937;-73
2022/08/18 07:15:35;;;;;;;3.92;3.72;;;25.60;66.30;;;;;;5062588;28;43980;-74
2022/08/18 07:18:04;;;;;;;3.80;3.60;;;25.60;67.10;;;;;;5067929;28;43967;-72
2022/08/18 07:20:40;;;;;;;3.80;3.70;;;25.60;67.20;;;;;;5068280;28;43899;-73
2022/08/18 07:23:09;;;;;;;3.40;3.30;;;25.60;67.00;;;;;;5069005;28;43975;-73
2022/08/18 07:25:39;;;;;;;3.90;3.70;;;25.50;66.60;;;;;;5068523;28;44026;-72
2022/08/18 07:28:07;;;;;;;3.63;3.53;;;25.50;67.50;;;;;;5069105;28;43971;-73
2022/08/18 07:30:36;;;;;;;3.40;3.30;;;25.50;67.40;;;;;;5068269;28;44011;-74
2022/08/18 07:33:12;;;;;;;3.22;3.13;;;25.60;67.20;;;;;;5068066;28;44088;-73
2022/08/18 07:35:44;;;;;;;3.78;3.60;;;25.70;66.80;;;;;;5068308;28;44243;-75
2022/08/18 07:38:16;;;;;;;3.73;3.53;;;25.80;66.50;;;;;;5067753;28;44010;-74
2022/08/18 07:41:06;;;;;;;3.75;3.65;;;25.80;66.40;;;;;;5067865;28;44026;-73
2022/08/18 07:43:37;;;;;;;3.27;3.07;;;25.70;66.30;;;;;;5068615;28;44362;-74
2022/08/18 07:46:08;;;;;;;3.38;3.28;;;25.70;66.90;;;;;;5067162;28;43452;-73
2022/08/18 07:48:36;;;;;;;3.58;3.38;;;25.70;66.90;;;;;;5069023;28;43933;-74
2022/08/18 07:51:12;;;;;;;3.23;3.13;;;25.60;66.70;;;;;;5068294;28;43984;-73
2022/08/18 07:53:50;;;;;;;3.67;3.47;;;25.60;66.70;;;;;;5067855;28;43840;-73
2022/08/18 07:56:29;;;;;;;3.50;3.40;;;25.60;67.40;;;;;;5068235;28;44002;-74
2022/08/18 07:58:58;;;;;;;3.42;3.33;;;25.60;67.40;;;;;;5067146;28;43855;-73
2022/08/18 08:01:29;;;;;;;3.35;3.25;;;25.60;67.20;;;;;;5067557;28;44066;-73
2022/08/18 08:04:18;;;;;;;3.38;3.28;;;25.50;66.90;;;;;;5067981;28;44044;-73
2022/08/18 08:06:58;;;;;;;3.45;3.35;;;25.50;67.70;;;;;;5064691;28;43896;-73
2022/08/18 08:09:50;;;;;;;3.90;3.70;;;25.50;67.60;;;;;;5068257;28;43960;-72
2022/08/18 08:12:23;;;;;;;3.90;3.80;;;25.60;67.20;;;;;;5068114;28;43999;-73
2022/08/18 08:14:53;;;;;;;3.50;3.40;;;25.70;66.90;;;;;;5065947;28;44998;-73
2022/08/18 08:17:24;;;;;;;3.65;3.55;;;25.80;66.70;;;;;;5067929;28;44003;-73
2022/08/18 08:20:02;;;;;;;3.40;3.30;;;25.80;66.60;;;;;;5068057;28;43948;-73
2022/08/18 08:22:36;;;;;;;3.47;3.37;;;25.70;66.80;;;;;;5065898;28;45890;-73
2022/08/18 08:25:07;;;;;;;3.65;3.55;;;25.60;67.00;;;;;;5066489;28;44988;-74
2022/08/18 08:28:06;;;;;;;3.80;3.60;;;25.70;67.10;;;;;;5067990;28;43952;-73
2022/08/18 08:30:35;;;;;;;3.43;3.33;;;25.60;66.90;;;;;;5066301;28;44098;-73
2022/08/18 08:33:11;;;;;;;3.60;3.50;;;25.60;67.20;;;;;;5066108;28;45679;-73
2022/08/18 08:35:42;;;;;;;3.55;3.45;;;25.50;67.60;;;;;;5067326;28;43981;-73
2022/08/18 08:38:22;;;;;;;3.53;3.42;;;25.50;67.30;;;;;;5066463;28;44118;-73
2022/08/18 08:41:12;;;;;;;3.50;3.40;;;25.50;67.20;;;;;;5067182;28;43410;-74
2022/08/18 08:43:41;;;;;;;3.63;3.53;;;25.50;67.70;;;;;;5066339;28;45391;-73
2022/08/18 08:46:11;;;;;;;3.93;3.80;;;25.50;67.90;;;;;;5067540;28;43976;-73
2022/08/18 08:48:41;;;;;;;3.58;3.47;;;25.50;67.50;;;;;;5067636;28;43441;-73
2022/08/18 08:51:22;;;;;;;3.75;3.65;;;25.60;67.20;;;;;;5067917;28;44244;-73
2022/08/18 08:53:57;;;;;;;3.70;3.60;;;25.70;66.80;;;;;;5067287;28;44866;-73
2022/08/18 08:56:30;;;;;;;3.83;3.72;;;25.80;66.60;;;;;;5065693;28;44595;-73
2022/08/18 08:58:59;;;;;;;3.70;3.60;;;25.80;66.50;;;;;;5067447;28;43937;-74
2022/08/18 09:01:30;;;;;;;3.73;3.63;;;25.70;66.60;;;;;;5065834;28;43866;-72
2022/08/18 09:04:01;;;;;;;3.40;3.30;;;25.70;67.00;;;;;;5065734;28;45776;-74
2022/08/18 09:06:33;;;;;;;3.58;3.47;;;25.70;67.00;;;;;;5065276;28;45218;-73
2022/08/18 09:09:14;;;;;;;3.45;3.25;;;25.60;66.80;;;;;;5061188;28;44249;-74
2022/08/18 09:12:10;;;;;;;3.85;3.65;;;25.60;66.90;;;;;;5067337;28;43932;-72
2022/08/18 09:15:06;;;;;;;3.93;3.83;;;25.50;67.50;;;;;;5066353;28;43604;-73
2022/08/18 09:17:46;;;;;;;3.85;3.75;;;25.50;67.40;;;;;;5061600;28;44390;-73
2022/08/18 09:20:34;;;;;;;3.85;3.75;;;25.50;67.10;;;;;;5065752;28;44002;-73
2022/08/18 09:23:06;;;;;;;3.67;3.58;;;25.50;67.70;;;;;;5067153;28;43424;-73
2022/08/18 09:25:45;;;;;;;3.90;3.80;;;25.50;67.90;;;;;;5064864;28;46358;-73
2022/08/18 09:28:15;;;;;;;3.60;3.50;;;25.60;67.60;;;;;;5067086;28;43888;-73
2022/08/18 09:30:47;;;;;;;3.90;3.70;;;25.60;67.20;;;;;;5066912;28;44280;-74
2022/08/18 09:33:21;;;;;;;3.40;3.30;;;25.70;66.80;;;;;;5067052;28;43948;-73
2022/08/18 09:36:10;;;;;;;3.50;3.40;;;25.80;66.80;;;;;;5066406;28;44354;-73
2022/08/18 09:42:11;;;;;;;3.90;3.70;;;25.70;67.10;;;;;;5028899;28;43938;-74
2022/08/18 09:45:05;;;;;;;3.50;3.40;;;25.60;67.20;;;;;;5066959;28;43959;-74
2022/08/18 09:48:16;;;;;;;4.10;4.00;;;25.60;67.10;;;;;;5063938;28;44557;-73
2022/08/18 09:50:55;;;;;;;3.83;3.73;;;25.50;67.40;;;;;;5054107;28;44004;-73
2022/08/18 09:53:51;;;;;;;3.70;3.60;;;25.50;67.60;;;;;;5060054;28;43904;-73
2022/08/18 09:56:57;;;;;;;3.73;3.63;;;25.50;67.50;;;;;;5066270;28;43889;-73
2022/08/18 09:59:55;;;;;;;4.00;3.80;;;25.50;67.10;;;;;;5066436;28;44939;-73
2022/08/18 10:03:01;;;;;;;3.80;3.70;;;25.50;68.00;;;;;;5024154;28;44095;-73
2022/08/18 10:05:30;;;;;;;3.60;3.50;;;25.50;67.90;;;;;;5035533;28;43903;-74
2022/08/18 10:08:27;;;;;;;4.20;4.10;;;25.50;67.40;;;;;;5066584;28;44011;-72
2022/08/18 10:10:57;;;;;;;3.90;3.80;;;25.40;67.80;;;;;;5066009;28;44047;-72
2022/08/18 10:13:48;;;;;;;3.70;3.60;;;25.40;68.10;;;;;;5065504;28;44022;-73
2022/08/18 10:16:21;;;;;;;3.78;3.67;;;25.50;67.90;;;;;;5064697;28;43799;-72
2022/08/18 10:18:54;;;;;;;4.18;3.97;;;25.60;67.40;;;;;;5066263;28;43871;-73
2022/08/18 10:21:27;;;;;;;3.78;3.67;;;25.70;67.00;;;;;;5064219;28;45742;-73
2022/08/18 10:24:18;;;;;;;4.10;4.00;;;25.80;66.70;;;;;;5066036;28;43935;-73
2022/08/18 10:27:05;;;;;;;4.00;3.90;;;25.90;66.70;;;;;;5064506;28;43971;-74
2022/08/18 10:30:00;;;;;;;3.70;3.60;;;25.80;66.80;;;;;;5058254;28;44082;-73
2022/08/18 10:32:46;;;;;;;3.87;3.77;;;25.70;67.10;;;;;;5064088;28;45281;-73
2022/08/18 10:35:57;;;;;;;4.03;3.92;;;25.70;67.10;;;;;;5066078;28;44018;-73
2022/08/18 10:38:36;;;;;;;4.00;3.90;;;25.60;66.70;;;;;;5066140;28;43829;-73
2022/08/18 10:41:09;;;;;;;3.70;3.60;;;25.60;67.40;;;;;;5065726;28;44085;-73
2022/08/18 10:43:43;;;;;;;4.20;4.00;;;25.60;67.70;;;;;;5064156;28;45733;-74
2022/08/18 10:46:26;;;;;;;3.70;3.60;;;25.60;67.60;;;;;;5064012;28;45971;-73
2022/08/18 10:49:20;;;;;;;3.80;3.60;;;25.50;67.10;;;;;;5066010;28;44415;-74
2022/08/18 10:52:09;;;;;;;3.80;3.70;;;25.50;68.00;;;;;;5059823;28;44241;-73
2022/08/18 10:54:48;;;;;;;3.73;3.63;;;25.50;68.00;;;;;;5065160;28;43915;-73
2022/08/18 10:57:25;;;;;;;3.60;3.50;;;25.50;67.70;;;;;;5065515;28;43916;-73
2022/08/18 10:59:57;;;;;;;3.67;3.57;;;25.50;67.30;;;;;;5064382;28;43964;-74
2022/08/18 11:02:40;;;;;;;3.43;3.40;;;25.40;68.10;;;;;;5059694;28;43353;-73
2022/08/18 11:05:10;;;;;;;3.70;3.60;;;25.50;68.20;;;;;;5059849;28;46486;-73
2022/08/18 11:07:42;;;;;;;3.55;3.45;;;25.50;67.80;;;;;;5065518;28;43407;-74
2022/08/18 11:10:16;;;;;;;3.50;3.40;;;25.60;67.40;;;;;;5069642;28;43961;-73
2022/08/18 11:13:08;;;;;;;3.30;3.23;;;25.70;67.00;;;;;;5068107;28;43948;-73
2022/08/18 11:16:01;;;;;;;3.70;3.60;;;25.80;66.80;;;;;;5069114;28;44035;-73
2022/08/18 11:18:32;;;;;;;3.43;3.33;;;25.80;66.70;;;;;;5068725;28;43456;-74
2022/08/18 11:21:25;;;;;;;3.53;3.43;;;25.70;66.90;;;;;;5069273;28;43971;-73
2022/08/18 11:24:12;;;;;;;3.60;3.50;;;25.70;67.20;;;;;;5069592;28;44055;-74
2022/08/18 11:26:45;;;;;;;3.10;3.10;;;25.60;67.00;;;;;;5068940;28;44026;-73
2022/08/18 11:29:25;;;;;;;3.70;3.60;;;25.60;66.90;;;;;;5068847;28;44051;-73
2022/08/18 11:31:55;;;;;;;3.57;3.47;;;25.50;67.60;;;;;;5068869;28;43957;-72
2022/08/18 11:34:32;;;;;;;3.60;3.50;;;25.50;68.40;;;;;;5069294;28;44045;-72
2022/08/18 11:37:02;;;;;;;3.57;3.47;;;25.50;67.50;;;;;;5067271;28;46016;-73
2022/08/18 11:39:42;;;;;;;4.47;4.28;;;25.50;67.20;;;;;;5067038;28;44679;-74
2022/08/18 11:42:11;;;;;;;4.83;4.47;;;25.50;67.60;;;;;;5066676;28;44008;-74
2022/08/18 11:44:48;;;;;;;5.00;4.57;;;25.50;67.70;;;;;;5068805;28;44038;-74
2022/08/18 11:47:18;;;;;;;5.30;4.83;;;25.50;67.40;;;;;;5068049;28;44181;-73
2022/08/18 11:49:57;;;;;;;4.50;4.30;;;25.60;67.20;;;;;;5068296;28;44270;-73
2022/08/18 11:52:28;;;;;;;4.80;4.50;;;25.70;67.10;;;;;;5068490;28;43391;-74
2022/08/18 11:55:05;;;;;;;4.00;3.90;;;25.60;66.90;;;;;;5068829;28;43951;-74
2022/08/18 11:57:53;;;;;;;5.53;4.00;;;25.60;67.00;;;;;;5066660;28;45591;-74
2022/08/18 12:00:55;;;;;;;3.80;3.70;;;25.60;67.50;;;;;;5068413;28;44146;-73
2022/08/18 12:03:36;;;;;;;4.23;3.93;;;25.50;67.40;;;;;;5066523;28;43431;-74
2022/08/18 12:06:11;;;;;;;4.00;3.90;;;25.50;67.20;;;;;;5068699;28;43379;-73
2022/08/18 12:08:58;;;;;;;3.83;3.70;;;25.50;67.60;;;;;;5066695;28;45598;-73
2022/08/18 12:11:28;;;;;;;3.42;3.42;;;25.40;68.00;;;;;;5068135;28;44029;-73
2022/08/18 12:14:01;;;;;;;3.60;3.50;;;25.40;67.90;;;;;;5068297;28;43913;-73
2022/08/18 12:16:49;;;;;;;3.67;3.58;;;25.40;67.50;;;;;;5066695;28;44218;-74
2022/08/18 12:19:21;;;;;;;4.07;3.88;;;25.40;68.20;;;;;;5067610;28;44066;-72
2022/08/18 12:21:54;;;;;;;3.90;3.70;;;25.40;68.30;;;;;;5067584;28;44020;-73
2022/08/18 12:24:26;;;;;;;3.70;3.60;;;25.50;68.00;;;;;;5067941;28;43925;-74
2022/08/18 12:27:14;;;;;;;4.22;3.95;;;25.50;67.50;;;;;;5068610;28;43381;-74
2022/08/18 12:29:49;;;;;;;3.90;3.80;;;25.60;67.20;;;;;;5066440;28;45408;-74
2022/08/18 12:32:17;;;;;;;3.45;3.35;;;25.70;67.00;;;;;;5068195;28;43948;-74
2022/08/18 12:35:06;;;;;;;3.72;3.63;;;25.70;66.90;;;;;;5067986;28;44283;-73
2022/08/18 12:37:37;;;;;;;3.80;3.70;;;25.60;67.20;;;;;;5067976;28;43968;-73
2022/08/18 12:40:26;;;;;;;3.90;3.70;;;25.60;67.40;;;;;;5065550;28;46084;-75
2022/08/18 12:42:54;;;;;;;3.63;3.53;;;25.60;67.30;;;;;;5067569;28;43375;-74
2022/08/18 12:45:24;;;;;;;4.03;3.92;;;25.60;67.10;;;;;;5067895;28;43725;-74
2022/08/18 12:47:54;;;;;;;3.40;3.40;;;25.50;67.60;;;;;;5068191;28;44016;-73
2022/08/18 12:50:22;;;;;;;3.73;3.63;;;25.50;68.00;;;;;;5067349;28;44046;-74
2022/08/18 12:53:02;;;;;;;3.70;3.60;;;25.50;67.90;;;;;;5067565;28;43954;-73
2022/08/18 12:55:33;;;;;;;3.60;3.50;;;25.40;67.50;;;;;;5067439;28;43916;-72
2022/08/18 12:58:04;;;;;;;4.00;3.70;;;25.40;68.00;;;;;;5067982;28;43968;-73
2022/08/18 13:00:33;;;;;;;3.75;3.65;;;25.40;68.30;;;;;;5066753;28;43998;-74
2022/08/18 13:03:03;;;;;;;3.60;3.50;;;25.50;68.10;;;;;;5067092;28;43989;-74
2022/08/18 13:05:31;;;;;;;3.50;3.50;;;25.50;67.50;;;;;;5067181;28;43912;-73
2022/08/18 13:08:01;;;;;;;2.90;2.90;;;25.60;67.30;;;;;;5066103;28;44058;-72
2022/08/18 13:10:32;;;;;;;3.75;3.65;;;25.60;67.10;;;;;;5067081;28;45148;-73
2022/08/18 13:13:13;;;;;;;3.67;3.58;;;25.60;67.00;;;;;;5067490;28;43320;-73
2022/08/18 13:15:41;;;;;;;3.25;3.25;;;25.60;67.50;;;;;;5067352;28;43916;-73
2022/08/18 13:18:22;;;;;;;3.57;3.47;;;25.50;67.50;;;;;;5067433;28;43323;-73
2022/08/18 13:20:56;;;;;;;3.72;3.63;;;25.50;67.50;;;;;;5067009;28;43897;-73
2022/08/18 13:23:26;;;;;;;3.80;3.70;;;25.50;67.30;;;;;;5065457;28;44313;-74
2022/08/18 13:25:55;;;;;;;3.90;3.70;;;25.50;67.70;;;;;;5067164;28;43889;-73
2022/08/18 13:28:29;;;;;;;3.60;3.50;;;25.40;68.10;;;;;;5067130;28;44188;-74
2022/08/18 13:31:03;;;;;;;3.78;3.67;;;25.40;68.00;;;;;;5066384;28;43940;-73
2022/08/18 13:33:32;;;;;;;3.40;3.40;;;25.40;67.60;;;;;;5064484;28;44766;-74
2022/08/18 13:36:20;;;;;;;3.72;3.63;;;25.30;67.80;;;;;;5066879;28;43897;-74
2022/08/18 13:38:51;;;;;;;3.50;3.40;;;25.40;68.30;;;;;;5066841;28;44031;-74